sensor_id;sensor_type;location;lat;lon;timestamp;P1;durP1;ratioP1;P2;durP2;ratioP2
9106;SDS011;4589;48.690;8.952;2024-03-17T00:00:29;23.93;;;11.77;;
9106;SDS011;4589;48.690;8.952;2024-03-17T00:02:55;20.07;;;11.37;;
9106;SDS011;4589;48.690;8.952;2024-03-17T00:05:21;22.10;;;12.20;;
9106;SDS011;4589;48.690;8.952;2024-03-17T00:07:47;22.40;;;12.77;;
9106;SDS011;4589;48.690;8.952;2024-03-17T00:10:13;26.83;;;14.43;;
9106;SDS011;4589;48.690;8.952;2024-03-17T00:12:40;25.80;;;14.33;;
9106;SDS011;4589;48.690;8.952;2024-03-17T00:15:06;36.20;;;17.90;;
9106;SDS011;4589;48.690;8.952;2024-03-17T00:17:32;31.00;;;16.17;;
9106;SDS011;4589;48.690;8.952;2024-03-17T00:20:01;31.33;;;15.57;;
9106;SDS011;4589;48.690;8.952;2024-03-17T00:22:35;26.53;;;14.70;;
9106;SDS011;4589;48.690;8.952;2024-03-17T00:25:06;20.70;;;13.00;;
9106;SDS011;4589;48.690;8.952;2024-03-17T00:27:32;24.50;;;14.20;;
9106;SDS011;4589;48.690;8.952;2024-03-17T00:30:00;28.00;;;13.80;;
9106;SDS011;4589;48.690;8.952;2024-03-17T00:32:27;21.30;;;12.63;;
9106;SDS011;4589;48.690;8.952;2024-03-17T00:34:53;22.07;;;12.33;;
9106;SDS011;4589;48.690;8.952;2024-03-17T00:37:18;21.30;;;12.67;;
9106;SDS011;4589;48.690;8.952;2024-03-17T00:39:44;27.13;;;11.40;;
9106;SDS011;4589;48.690;8.952;2024-03-17T00:42:09;28.37;;;14.43;;
9106;SDS011;4589;48.690;8.952;2024-03-17T00:44:35;36.23;;;12.87;;
9106;SDS011;4589;48.690;8.952;2024-03-17T00:47:00;35.90;;;15.80;;
9106;SDS011;4589;48.690;8.952;2024-03-17T00:49:26;36.40;;;14.67;;
9106;SDS011;4589;48.690;8.952;2024-03-17T00:51:51;28.80;;;13.53;;
9106;SDS011;4589;48.690;8.952;2024-03-17T00:54:17;24.10;;;11.10;;
9106;SDS011;4589;48.690;8.952;2024-03-17T00:56:45;20.23;;;11.00;;
9106;SDS011;4589;48.690;8.952;2024-03-17T00:59:11;21.77;;;10.30;;
9106;SDS011;4589;48.690;8.952;2024-03-17T01:01:36;25.43;;;10.93;;
9106;SDS011;4589;48.690;8.952;2024-03-17T01:04:02;20.23;;;10.20;;
9106;SDS011;4589;48.690;8.952;2024-03-17T01:06:27;16.47;;;10.87;;
9106;SDS011;4589;48.690;8.952;2024-03-17T01:08:53;18.10;;;10.50;;
9106;SDS011;4589;48.690;8.952;2024-03-17T01:11:19;20.80;;;11.67;;
9106;SDS011;4589;48.690;8.952;2024-03-17T01:13:45;22.77;;;10.77;;
9106;SDS011;4589;48.690;8.952;2024-03-17T01:16:11;20.23;;;10.40;;
9106;SDS011;4589;48.690;8.952;2024-03-17T01:18:38;19.57;;;10.90;;
9106;SDS011;4589;48.690;8.952;2024-03-17T01:21:04;22.63;;;11.00;;
9106;SDS011;4589;48.690;8.952;2024-03-17T01:23:31;25.57;;;12.57;;
9106;SDS011;4589;48.690;8.952;2024-03-17T01:25:56;24.87;;;11.50;;
9106;SDS011;4589;48.690;8.952;2024-03-17T01:28:22;22.20;;;12.20;;
9106;SDS011;4589;48.690;8.952;2024-03-17T01:30:47;24.90;;;11.40;;
9106;SDS011;4589;48.690;8.952;2024-03-17T01:33:13;23.13;;;12.87;;
9106;SDS011;4589;48.690;8.952;2024-03-17T01:35:39;21.70;;;11.63;;
9106;SDS011;4589;48.690;8.952;2024-03-17T01:38:04;23.20;;;11.93;;
9106;SDS011;4589;48.690;8.952;2024-03-17T01:40:30;28.63;;;12.80;;
9106;SDS011;4589;48.690;8.952;2024-03-17T01:42:56;21.53;;;12.03;;
9106;SDS011;4589;48.690;8.952;2024-03-17T01:47:53;26.50;;;12.97;;
9106;SDS011;4589;48.690;8.952;2024-03-17T01:50:19;27.77;;;13.60;;
9106;SDS011;4589;48.690;8.952;2024-03-17T01:52:49;27.10;;;12.03;;
9106;SDS011;4589;48.690;8.952;2024-03-17T01:55:16;34.73;;;12.87;;
9106;SDS011;4589;48.690;8.952;2024-03-17T01:57:42;25.13;;;13.07;;
9106;SDS011;4589;48.690;8.952;2024-03-17T02:00:08;28.90;;;12.73;;
9106;SDS011;4589;48.690;8.952;2024-03-17T02:02:37;23.37;;;12.50;;
9106;SDS011;4589;48.690;8.952;2024-03-17T02:05:03;25.60;;;14.03;;
9106;SDS011;4589;48.690;8.952;2024-03-17T02:07:29;24.53;;;12.40;;
9106;SDS011;4589;48.690;8.952;2024-03-17T02:09:56;17.27;;;10.73;;
9106;SDS011;4589;48.690;8.952;2024-03-17T02:12:22;25.03;;;12.30;;
9106;SDS011;4589;48.690;8.952;2024-03-17T02:14:48;24.83;;;11.80;;
9106;SDS011;4589;48.690;8.952;2024-03-17T02:17:14;23.87;;;11.73;;
9106;SDS011;4589;48.690;8.952;2024-03-17T02:19:39;21.33;;;11.00;;
9106;SDS011;4589;48.690;8.952;2024-03-17T02:22:09;26.43;;;12.70;;
9106;SDS011;4589;48.690;8.952;2024-03-17T02:24:39;21.00;;;12.03;;
9106;SDS011;4589;48.690;8.952;2024-03-17T02:27:05;21.23;;;11.40;;
9106;SDS011;4589;48.690;8.952;2024-03-17T02:29:30;17.40;;;10.90;;
9106;SDS011;4589;48.690;8.952;2024-03-17T02:31:56;23.50;;;12.13;;
9106;SDS011;4589;48.690;8.952;2024-03-17T02:34:22;23.30;;;12.30;;
9106;SDS011;4589;48.690;8.952;2024-03-17T02:36:47;25.60;;;12.23;;
9106;SDS011;4589;48.690;8.952;2024-03-17T02:39:13;20.17;;;11.67;;
9106;SDS011;4589;48.690;8.952;2024-03-17T02:41:59;19.93;;;10.77;;
9106;SDS011;4589;48.690;8.952;2024-03-17T02:44:32;22.23;;;10.10;;
9106;SDS011;4589;48.690;8.952;2024-03-17T02:46:59;17.20;;;9.77;;
9106;SDS011;4589;48.690;8.952;2024-03-17T02:49:25;19.63;;;9.60;;
9106;SDS011;4589;48.690;8.952;2024-03-17T02:51:52;18.70;;;9.47;;
9106;SDS011;4589;48.690;8.952;2024-03-17T02:54:19;18.30;;;9.83;;
9106;SDS011;4589;48.690;8.952;2024-03-17T02:56:45;14.80;;;9.80;;
9106;SDS011;4589;48.690;8.952;2024-03-17T02:59:12;21.57;;;9.13;;
9106;SDS011;4589;48.690;8.952;2024-03-17T03:01:37;20.73;;;10.33;;
9106;SDS011;4589;48.690;8.952;2024-03-17T03:04:03;26.83;;;9.50;;
9106;SDS011;4589;48.690;8.952;2024-03-17T03:06:29;19.87;;;9.60;;
9106;SDS011;4589;48.690;8.952;2024-03-17T03:08:54;20.90;;;9.00;;
9106;SDS011;4589;48.690;8.952;2024-03-17T03:11:20;17.73;;;10.27;;
9106;SDS011;4589;48.690;8.952;2024-03-17T03:13:46;20.77;;;9.90;;
9106;SDS011;4589;48.690;8.952;2024-03-17T03:16:12;25.83;;;11.07;;
9106;SDS011;4589;48.690;8.952;2024-03-17T03:18:39;19.90;;;9.93;;
9106;SDS011;4589;48.690;8.952;2024-03-17T03:21:05;24.27;;;10.40;;
9106;SDS011;4589;48.690;8.952;2024-03-17T03:23:31;16.47;;;9.10;;
9106;SDS011;4589;48.690;8.952;2024-03-17T03:25:58;19.77;;;10.00;;
9106;SDS011;4589;48.690;8.952;2024-03-17T03:28:25;26.03;;;11.20;;
9106;SDS011;4589;48.690;8.952;2024-03-17T03:30:51;23.70;;;10.40;;
9106;SDS011;4589;48.690;8.952;2024-03-17T03:33:18;24.97;;;11.33;;
9106;SDS011;4589;48.690;8.952;2024-03-17T03:35:44;21.80;;;11.40;;
9106;SDS011;4589;48.690;8.952;2024-03-17T03:38:10;25.57;;;10.63;;
9106;SDS011;4589;48.690;8.952;2024-03-17T03:40:36;24.23;;;10.20;;
9106;SDS011;4589;48.690;8.952;2024-03-17T03:43:02;19.10;;;11.00;;
9106;SDS011;4589;48.690;8.952;2024-03-17T03:45:28;13.80;;;8.93;;
9106;SDS011;4589;48.690;8.952;2024-03-17T03:47:53;20.23;;;10.30;;
9106;SDS011;4589;48.690;8.952;2024-03-17T03:50:20;20.93;;;9.63;;
9106;SDS011;4589;48.690;8.952;2024-03-17T03:52:46;18.03;;;9.17;;
9106;SDS011;4589;48.690;8.952;2024-03-17T03:55:12;18.97;;;9.03;;
9106;SDS011;4589;48.690;8.952;2024-03-17T03:57:42;18.57;;;9.63;;
9106;SDS011;4589;48.690;8.952;2024-03-17T04:00:11;19.57;;;10.00;;
9106;SDS011;4589;48.690;8.952;2024-03-17T04:02:46;18.80;;;9.03;;
9106;SDS011;4589;48.690;8.952;2024-03-17T04:05:13;17.83;;;9.67;;
9106;SDS011;4589;48.690;8.952;2024-03-17T04:07:39;19.57;;;9.40;;
9106;SDS011;4589;48.690;8.952;2024-03-17T04:10:05;21.30;;;10.10;;
9106;SDS011;4589;48.690;8.952;2024-03-17T04:12:31;19.87;;;9.07;;
9106;SDS011;4589;48.690;8.952;2024-03-17T04:14:57;23.83;;;9.20;;
9106;SDS011;4589;48.690;8.952;2024-03-17T04:17:24;17.57;;;9.83;;
9106;SDS011;4589;48.690;8.952;2024-03-17T04:19:50;20.27;;;9.73;;
9106;SDS011;4589;48.690;8.952;2024-03-17T04:22:17;22.07;;;10.17;;
9106;SDS011;4589;48.690;8.952;2024-03-17T04:24:43;23.27;;;9.90;;
9106;SDS011;4589;48.690;8.952;2024-03-17T04:27:13;19.80;;;10.57;;
9106;SDS011;4589;48.690;8.952;2024-03-17T04:29:39;21.27;;;10.40;;
9106;SDS011;4589;48.690;8.952;2024-03-17T04:32:05;26.40;;;9.80;;
9106;SDS011;4589;48.690;8.952;2024-03-17T04:34:31;21.13;;;9.37;;
9106;SDS011;4589;48.690;8.952;2024-03-17T04:36:57;19.57;;;10.17;;
9106;SDS011;4589;48.690;8.952;2024-03-17T04:39:23;17.00;;;9.23;;
9106;SDS011;4589;48.690;8.952;2024-03-17T04:41:50;20.07;;;9.77;;
9106;SDS011;4589;48.690;8.952;2024-03-17T04:44:16;20.50;;;9.00;;
9106;SDS011;4589;48.690;8.952;2024-03-17T04:46:42;20.03;;;9.63;;
9106;SDS011;4589;48.690;8.952;2024-03-17T04:49:08;16.70;;;9.70;;
9106;SDS011;4589;48.690;8.952;2024-03-17T04:51:33;22.00;;;11.33;;
9106;SDS011;4589;48.690;8.952;2024-03-17T04:53:59;20.13;;;9.17;;
9106;SDS011;4589;48.690;8.952;2024-03-17T04:56:25;28.00;;;10.70;;
9106;SDS011;4589;48.690;8.952;2024-03-17T04:58:51;26.03;;;12.20;;
9106;SDS011;4589;48.690;8.952;2024-03-17T05:01:16;23.50;;;11.40;;
9106;SDS011;4589;48.690;8.952;2024-03-17T05:03:42;25.20;;;11.83;;
9106;SDS011;4589;48.690;8.952;2024-03-17T05:06:08;24.13;;;10.30;;
9106;SDS011;4589;48.690;8.952;2024-03-17T05:08:33;18.03;;;8.87;;
9106;SDS011;4589;48.690;8.952;2024-03-17T05:11:00;18.90;;;9.90;;
9106;SDS011;4589;48.690;8.952;2024-03-17T05:13:29;20.97;;;9.40;;
9106;SDS011;4589;48.690;8.952;2024-03-17T05:15:56;19.67;;;10.83;;
9106;SDS011;4589;48.690;8.952;2024-03-17T05:18:22;17.83;;;9.63;;
9106;SDS011;4589;48.690;8.952;2024-03-17T05:20:57;25.00;;;11.03;;
9106;SDS011;4589;48.690;8.952;2024-03-17T05:23:25;23.63;;;10.27;;
9106;SDS011;4589;48.690;8.952;2024-03-17T05:25:52;22.27;;;9.27;;
9106;SDS011;4589;48.690;8.952;2024-03-17T05:28:17;24.07;;;12.37;;
9106;SDS011;4589;48.690;8.952;2024-03-17T05:30:43;19.70;;;9.60;;
9106;SDS011;4589;48.690;8.952;2024-03-17T05:33:08;21.97;;;9.97;;
9106;SDS011;4589;48.690;8.952;2024-03-17T05:35:35;22.13;;;10.30;;
9106;SDS011;4589;48.690;8.952;2024-03-17T05:38:01;33.67;;;11.70;;
9106;SDS011;4589;48.690;8.952;2024-03-17T05:40:26;22.57;;;9.87;;
9106;SDS011;4589;48.690;8.952;2024-03-17T05:42:52;20.73;;;10.60;;
9106;SDS011;4589;48.690;8.952;2024-03-17T05:45:18;20.07;;;10.20;;
9106;SDS011;4589;48.690;8.952;2024-03-17T05:47:43;22.13;;;10.33;;
9106;SDS011;4589;48.690;8.952;2024-03-17T05:50:09;20.57;;;10.13;;
9106;SDS011;4589;48.690;8.952;2024-03-17T05:52:37;21.60;;;9.67;;
9106;SDS011;4589;48.690;8.952;2024-03-17T05:55:03;33.37;;;11.07;;
9106;SDS011;4589;48.690;8.952;2024-03-17T05:57:28;32.53;;;11.53;;
9106;SDS011;4589;48.690;8.952;2024-03-17T05:59:54;18.93;;;9.97;;
9106;SDS011;4589;48.690;8.952;2024-03-17T06:02:20;23.60;;;11.60;;
9106;SDS011;4589;48.690;8.952;2024-03-17T06:04:46;21.13;;;10.10;;
9106;SDS011;4589;48.690;8.952;2024-03-17T06:07:11;17.87;;;8.87;;
9106;SDS011;4589;48.690;8.952;2024-03-17T06:09:37;18.53;;;9.07;;
9106;SDS011;4589;48.690;8.952;2024-03-17T06:12:03;24.57;;;11.17;;
9106;SDS011;4589;48.690;8.952;2024-03-17T06:14:28;18.23;;;10.60;;
9106;SDS011;4589;48.690;8.952;2024-03-17T06:16:54;21.00;;;9.90;;
9106;SDS011;4589;48.690;8.952;2024-03-17T06:19:19;18.80;;;10.03;;
9106;SDS011;4589;48.690;8.952;2024-03-17T06:21:45;19.40;;;9.80;;
9106;SDS011;4589;48.690;8.952;2024-03-17T06:24:10;23.43;;;10.67;;
9106;SDS011;4589;48.690;8.952;2024-03-17T06:26:36;23.23;;;10.43;;
9106;SDS011;4589;48.690;8.952;2024-03-17T06:29:01;21.20;;;11.00;;
9106;SDS011;4589;48.690;8.952;2024-03-17T06:31:27;17.97;;;10.40;;
9106;SDS011;4589;48.690;8.952;2024-03-17T06:33:53;32.43;;;11.33;;
9106;SDS011;4589;48.690;8.952;2024-03-17T06:36:19;18.00;;;9.97;;
9106;SDS011;4589;48.690;8.952;2024-03-17T06:38:44;24.50;;;12.77;;
9106;SDS011;4589;48.690;8.952;2024-03-17T06:41:10;26.73;;;12.47;;
9106;SDS011;4589;48.690;8.952;2024-03-17T06:43:37;17.43;;;10.00;;
9106;SDS011;4589;48.690;8.952;2024-03-17T06:46:04;24.50;;;11.53;;
9106;SDS011;4589;48.690;8.952;2024-03-17T06:48:30;23.27;;;12.40;;
9106;SDS011;4589;48.690;8.952;2024-03-17T06:50:55;17.20;;;10.53;;
9106;SDS011;4589;48.690;8.952;2024-03-17T06:53:21;24.47;;;12.00;;
9106;SDS011;4589;48.690;8.952;2024-03-17T06:55:57;24.50;;;11.83;;
9106;SDS011;4589;48.690;8.952;2024-03-17T06:58:24;26.00;;;13.10;;
9106;SDS011;4589;48.690;8.952;2024-03-17T07:00:58;24.10;;;14.50;;
9106;SDS011;4589;48.690;8.952;2024-03-17T07:03:26;26.33;;;13.67;;
9106;SDS011;4589;48.690;8.952;2024-03-17T07:05:53;31.67;;;16.20;;
9106;SDS011;4589;48.690;8.952;2024-03-17T07:08:20;25.27;;;13.27;;
9106;SDS011;4589;48.690;8.952;2024-03-17T07:11:01;30.90;;;15.20;;
9106;SDS011;4589;48.690;8.952;2024-03-17T07:13:29;35.53;;;16.60;;
9106;SDS011;4589;48.690;8.952;2024-03-17T07:15:55;33.43;;;16.00;;
9106;SDS011;4589;48.690;8.952;2024-03-17T07:18:21;35.07;;;15.90;;
9106;SDS011;4589;48.690;8.952;2024-03-17T07:20:47;42.07;;;16.30;;
9106;SDS011;4589;48.690;8.952;2024-03-17T07:23:15;30.50;;;15.40;;
9106;SDS011;4589;48.690;8.952;2024-03-17T07:25:41;32.33;;;17.47;;
9106;SDS011;4589;48.690;8.952;2024-03-17T07:28:07;33.53;;;16.83;;
9106;SDS011;4589;48.690;8.952;2024-03-17T07:30:33;31.20;;;16.00;;
9106;SDS011;4589;48.690;8.952;2024-03-17T07:32:59;31.93;;;17.07;;
9106;SDS011;4589;48.690;8.952;2024-03-17T07:35:24;35.07;;;17.90;;
9106;SDS011;4589;48.690;8.952;2024-03-17T07:37:50;37.00;;;17.00;;
9106;SDS011;4589;48.690;8.952;2024-03-17T07:40:15;34.53;;;18.03;;
9106;SDS011;4589;48.690;8.952;2024-03-17T07:42:41;39.73;;;18.77;;
9106;SDS011;4589;48.690;8.952;2024-03-17T07:45:07;34.63;;;15.60;;
9106;SDS011;4589;48.690;8.952;2024-03-17T07:47:33;29.87;;;14.43;;
9106;SDS011;4589;48.690;8.952;2024-03-17T07:50:03;25.30;;;14.90;;
9106;SDS011;4589;48.690;8.952;2024-03-17T07:52:30;31.13;;;14.83;;
9106;SDS011;4589;48.690;8.952;2024-03-17T07:54:56;25.77;;;14.47;;
9106;SDS011;4589;48.690;8.952;2024-03-17T07:57:22;22.67;;;13.40;;
9106;SDS011;4589;48.690;8.952;2024-03-17T07:59:50;26.10;;;12.97;;
9106;SDS011;4589;48.690;8.952;2024-03-17T08:02:16;28.10;;;13.40;;
9106;SDS011;4589;48.690;8.952;2024-03-17T08:04:42;23.30;;;12.70;;
9106;SDS011;4589;48.690;8.952;2024-03-17T08:07:09;20.77;;;11.97;;
9106;SDS011;4589;48.690;8.952;2024-03-17T08:09:35;21.10;;;11.60;;
9106;SDS011;4589;48.690;8.952;2024-03-17T08:12:01;20.40;;;12.97;;
9106;SDS011;4589;48.690;8.952;2024-03-17T08:14:29;21.77;;;11.10;;
9106;SDS011;4589;48.690;8.952;2024-03-17T08:16:57;21.30;;;11.20;;
9106;SDS011;4589;48.690;8.952;2024-03-17T08:19:23;14.73;;;10.10;;
9106;SDS011;4589;48.690;8.952;2024-03-17T08:21:48;14.60;;;10.30;;
9106;SDS011;4589;48.690;8.952;2024-03-17T08:24:14;16.03;;;10.00;;
9106;SDS011;4589;48.690;8.952;2024-03-17T08:26:39;14.37;;;9.77;;
9106;SDS011;4589;48.690;8.952;2024-03-17T08:29:05;17.93;;;11.23;;
9106;SDS011;4589;48.690;8.952;2024-03-17T08:31:31;13.27;;;8.87;;
9106;SDS011;4589;48.690;8.952;2024-03-17T08:33:57;13.23;;;9.63;;
9106;SDS011;4589;48.690;8.952;2024-03-17T08:36:23;19.33;;;8.93;;
9106;SDS011;4589;48.690;8.952;2024-03-17T08:38:49;19.23;;;8.50;;
9106;SDS011;4589;48.690;8.952;2024-03-17T08:41:15;13.17;;;9.13;;
9106;SDS011;4589;48.690;8.952;2024-03-17T08:43:41;15.17;;;9.73;;
9106;SDS011;4589;48.690;8.952;2024-03-17T08:46:08;11.30;;;9.40;;
9106;SDS011;4589;48.690;8.952;2024-03-17T08:48:35;12.23;;;9.00;;
9106;SDS011;4589;48.690;8.952;2024-03-17T08:51:03;9.90;;;8.03;;
9106;SDS011;4589;48.690;8.952;2024-03-17T08:53:30;11.77;;;8.47;;
9106;SDS011;4589;48.690;8.952;2024-03-17T08:55:56;10.30;;;7.90;;
9106;SDS011;4589;48.690;8.952;2024-03-17T08:58:22;13.83;;;9.03;;
9106;SDS011;4589;48.690;8.952;2024-03-17T09:00:48;11.30;;;9.50;;
9106;SDS011;4589;48.690;8.952;2024-03-17T09:03:14;13.93;;;9.40;;
9106;SDS011;4589;48.690;8.952;2024-03-17T09:05:40;12.40;;;9.57;;
9106;SDS011;4589;48.690;8.952;2024-03-17T09:08:07;11.87;;;10.27;;
9106;SDS011;4589;48.690;8.952;2024-03-17T09:10:42;12.50;;;9.90;;
9106;SDS011;4589;48.690;8.952;2024-03-17T09:13:15;13.10;;;11.20;;
9106;SDS011;4589;48.690;8.952;2024-03-17T09:15:57;14.60;;;10.90;;
9106;SDS011;4589;48.690;8.952;2024-03-17T09:18:27;13.90;;;9.60;;
9106;SDS011;4589;48.690;8.952;2024-03-17T09:20:57;10.43;;;9.30;;
9106;SDS011;4589;48.690;8.952;2024-03-17T09:23:27;12.60;;;9.83;;
9106;SDS011;4589;48.690;8.952;2024-03-17T09:25:56;11.80;;;8.93;;
9106;SDS011;4589;48.690;8.952;2024-03-17T09:28:26;13.27;;;9.20;;
9106;SDS011;4589;48.690;8.952;2024-03-17T09:30:52;10.70;;;8.43;;
9106;SDS011;4589;48.690;8.952;2024-03-17T09:33:24;12.37;;;8.97;;
9106;SDS011;4589;48.690;8.952;2024-03-17T09:38:22;11.83;;;8.40;;
9106;SDS011;4589;48.690;8.952;2024-03-17T09:40:48;8.20;;;6.70;;
9106;SDS011;4589;48.690;8.952;2024-03-17T09:43:22;11.20;;;6.93;;
9106;SDS011;4589;48.690;8.952;2024-03-17T09:45:50;8.07;;;5.87;;
9106;SDS011;4589;48.690;8.952;2024-03-17T09:48:20;8.00;;;7.13;;
9106;SDS011;4589;48.690;8.952;2024-03-17T09:53:19;9.10;;;7.10;;
9106;SDS011;4589;48.690;8.952;2024-03-17T09:56:01;9.23;;;6.70;;
9106;SDS011;4589;48.690;8.952;2024-03-17T09:58:33;8.67;;;6.87;;
9106;SDS011;4589;48.690;8.952;2024-03-17T10:00:59;8.43;;;5.97;;
9106;SDS011;4589;48.690;8.952;2024-03-17T10:06:13;7.60;;;5.83;;
9106;SDS011;4589;48.690;8.952;2024-03-17T10:08:43;11.33;;;6.83;;
9106;SDS011;4589;48.690;8.952;2024-03-17T10:11:09;6.13;;;5.53;;
9106;SDS011;4589;48.690;8.952;2024-03-17T10:13:36;7.87;;;5.00;;
9106;SDS011;4589;48.690;8.952;2024-03-17T10:16:01;7.30;;;5.43;;
9106;SDS011;4589;48.690;8.952;2024-03-17T10:18:28;9.50;;;4.97;;
9106;SDS011;4589;48.690;8.952;2024-03-17T10:20:53;4.70;;;4.23;;
9106;SDS011;4589;48.690;8.952;2024-03-17T10:23:22;5.23;;;4.63;;
9106;SDS011;4589;48.690;8.952;2024-03-17T10:25:48;7.17;;;5.67;;
9106;SDS011;4589;48.690;8.952;2024-03-17T10:28:15;10.50;;;4.60;;
9106;SDS011;4589;48.690;8.952;2024-03-17T10:30:42;7.57;;;5.77;;
9106;SDS011;4589;48.690;8.952;2024-03-17T10:33:25;6.87;;;5.33;;
9106;SDS011;4589;48.690;8.952;2024-03-17T10:35:57;5.90;;;4.30;;
9106;SDS011;4589;48.690;8.952;2024-03-17T10:38:27;10.30;;;5.60;;
9106;SDS011;4589;48.690;8.952;2024-03-17T10:40:53;5.40;;;4.93;;
9106;SDS011;4589;48.690;8.952;2024-03-17T10:43:19;5.87;;;3.93;;
9106;SDS011;4589;48.690;8.952;2024-03-17T10:45:49;7.30;;;3.87;;
9106;SDS011;4589;48.690;8.952;2024-03-17T10:48:17;7.60;;;3.40;;
9106;SDS011;4589;48.690;8.952;2024-03-17T10:50:46;4.70;;;3.87;;
9106;SDS011;4589;48.690;8.952;2024-03-17T10:53:15;7.30;;;3.53;;
9106;SDS011;4589;48.690;8.952;2024-03-17T10:55:51;4.73;;;3.53;;
9106;SDS011;4589;48.690;8.952;2024-03-17T10:58:42;5.73;;;3.87;;
9106;SDS011;4589;48.690;8.952;2024-03-17T11:01:14;3.70;;;3.07;;
9106;SDS011;4589;48.690;8.952;2024-03-17T11:03:40;3.47;;;3.10;;
9106;SDS011;4589;48.690;8.952;2024-03-17T11:06:06;3.33;;;2.67;;
9106;SDS011;4589;48.690;8.952;2024-03-17T11:08:33;4.07;;;2.70;;
9106;SDS011;4589;48.690;8.952;2024-03-17T11:11:00;3.03;;;2.77;;
9106;SDS011;4589;48.690;8.952;2024-03-17T11:13:29;3.23;;;2.93;;
9106;SDS011;4589;48.690;8.952;2024-03-17T11:15:56;3.90;;;3.23;;
9106;SDS011;4589;48.690;8.952;2024-03-17T11:18:31;3.73;;;3.00;;
9106;SDS011;4589;48.690;8.952;2024-03-17T11:23:32;4.57;;;3.63;;
9106;SDS011;4589;48.690;8.952;2024-03-17T11:25:58;3.50;;;3.10;;
9106;SDS011;4589;48.690;8.952;2024-03-17T11:34:06;3.83;;;2.87;;
9106;SDS011;4589;48.690;8.952;2024-03-17T11:36:50;2.60;;;2.40;;
9106;SDS011;4589;48.690;8.952;2024-03-17T11:39:16;3.53;;;3.23;;
9106;SDS011;4589;48.690;8.952;2024-03-17T11:41:52;4.50;;;3.23;;
9106;SDS011;4589;48.690;8.952;2024-03-17T11:49:29;4.53;;;3.30;;
9106;SDS011;4589;48.690;8.952;2024-03-17T11:52:02;6.30;;;4.23;;
9106;SDS011;4589;48.690;8.952;2024-03-17T11:54:34;4.60;;;4.07;;
9106;SDS011;4589;48.690;8.952;2024-03-17T11:57:43;3.40;;;3.10;;
9106;SDS011;4589;48.690;8.952;2024-03-17T11:59:51;8.17;;;4.90;;
9106;SDS011;4589;48.690;8.952;2024-03-17T12:02:20;4.73;;;4.30;;
9106;SDS011;4589;48.690;8.952;2024-03-17T12:04:46;8.20;;;6.50;;
9106;SDS011;4589;48.690;8.952;2024-03-17T12:07:17;7.10;;;6.07;;
9106;SDS011;4589;48.690;8.952;2024-03-17T12:09:47;4.00;;;3.53;;
9106;SDS011;4589;48.690;8.952;2024-03-17T12:12:20;7.37;;;5.50;;
9106;SDS011;4589;48.690;8.952;2024-03-17T12:14:48;4.30;;;3.60;;
9106;SDS011;4589;48.690;8.952;2024-03-17T12:17:15;3.60;;;3.30;;
9106;SDS011;4589;48.690;8.952;2024-03-17T12:19:48;4.00;;;3.70;;
9106;SDS011;4589;48.690;8.952;2024-03-17T12:22:21;4.23;;;3.53;;
9106;SDS011;4589;48.690;8.952;2024-03-17T12:24:50;4.70;;;3.57;;
9106;SDS011;4589;48.690;8.952;2024-03-17T12:27:20;4.23;;;3.07;;
9106;SDS011;4589;48.690;8.952;2024-03-17T12:29:47;6.37;;;3.43;;
9106;SDS011;4589;48.690;8.952;2024-03-17T12:32:18;6.70;;;3.83;;
9106;SDS011;4589;48.690;8.952;2024-03-17T12:34:46;4.33;;;3.57;;
9106;SDS011;4589;48.690;8.952;2024-03-17T12:37:18;5.10;;;3.93;;
9106;SDS011;4589;48.690;8.952;2024-03-17T12:39:45;5.47;;;3.80;;
9106;SDS011;4589;48.690;8.952;2024-03-17T12:42:12;4.70;;;3.20;;
9106;SDS011;4589;48.690;8.952;2024-03-17T12:44:40;4.10;;;3.70;;
9106;SDS011;4589;48.690;8.952;2024-03-17T12:47:16;5.00;;;4.00;;
9106;SDS011;4589;48.690;8.952;2024-03-17T12:49:49;5.67;;;3.30;;
9106;SDS011;4589;48.690;8.952;2024-03-17T12:52:22;4.83;;;3.80;;
9106;SDS011;4589;48.690;8.952;2024-03-17T12:55:15;3.37;;;3.07;;
9106;SDS011;4589;48.690;8.952;2024-03-17T13:00:46;7.97;;;3.00;;
9106;SDS011;4589;48.690;8.952;2024-03-17T13:03:23;6.37;;;3.30;;
9106;SDS011;4589;48.690;8.952;2024-03-17T13:05:50;7.33;;;3.40;;
9106;SDS011;4589;48.690;8.952;2024-03-17T13:08:16;3.93;;;3.07;;
9106;SDS011;4589;48.690;8.952;2024-03-17T13:10:42;8.20;;;4.00;;
9106;SDS011;4589;48.690;8.952;2024-03-17T13:13:08;3.80;;;2.67;;
9106;SDS011;4589;48.690;8.952;2024-03-17T13:15:35;4.23;;;2.40;;
9106;SDS011;4589;48.690;8.952;2024-03-17T13:18:01;4.67;;;2.50;;
9106;SDS011;4589;48.690;8.952;2024-03-17T13:20:29;4.30;;;2.70;;
9106;SDS011;4589;48.690;8.952;2024-03-17T13:22:55;4.40;;;2.97;;
9106;SDS011;4589;48.690;8.952;2024-03-17T13:25:23;7.17;;;3.37;;
9106;SDS011;4589;48.690;8.952;2024-03-17T13:27:51;4.43;;;2.83;;
9106;SDS011;4589;48.690;8.952;2024-03-17T13:30:18;3.00;;;2.70;;
9106;SDS011;4589;48.690;8.952;2024-03-17T13:32:47;3.60;;;2.90;;
9106;SDS011;4589;48.690;8.952;2024-03-17T13:35:16;5.00;;;2.80;;
9106;SDS011;4589;48.690;8.952;2024-03-17T13:37:44;3.73;;;2.60;;
9106;SDS011;4589;48.690;8.952;2024-03-17T13:40:10;2.80;;;2.60;;
9106;SDS011;4589;48.690;8.952;2024-03-17T13:42:38;3.80;;;2.53;;
9106;SDS011;4589;48.690;8.952;2024-03-17T13:45:04;2.37;;;2.17;;
9106;SDS011;4589;48.690;8.952;2024-03-17T13:47:31;8.37;;;2.60;;
9106;SDS011;4589;48.690;8.952;2024-03-17T13:49:58;3.43;;;2.60;;
9106;SDS011;4589;48.690;8.952;2024-03-17T13:52:23;4.73;;;2.70;;
9106;SDS011;4589;48.690;8.952;2024-03-17T13:54:49;3.30;;;2.53;;
9106;SDS011;4589;48.690;8.952;2024-03-17T13:57:14;2.40;;;2.20;;
9106;SDS011;4589;48.690;8.952;2024-03-17T13:59:41;10.80;;;3.37;;
9106;SDS011;4589;48.690;8.952;2024-03-17T14:02:09;1.90;;;1.80;;
9106;SDS011;4589;48.690;8.952;2024-03-17T14:04:37;6.90;;;2.43;;
9106;SDS011;4589;48.690;8.952;2024-03-17T14:07:03;2.23;;;2.03;;
9106;SDS011;4589;48.690;8.952;2024-03-17T14:09:30;4.57;;;2.10;;
9106;SDS011;4589;48.690;8.952;2024-03-17T14:11:56;2.70;;;1.93;;
9106;SDS011;4589;48.690;8.952;2024-03-17T14:14:22;2.80;;;2.00;;
9106;SDS011;4589;48.690;8.952;2024-03-17T14:16:48;3.10;;;2.00;;
9106;SDS011;4589;48.690;8.952;2024-03-17T14:19:14;3.57;;;1.90;;
9106;SDS011;4589;48.690;8.952;2024-03-17T14:21:39;3.13;;;2.67;;
9106;SDS011;4589;48.690;8.952;2024-03-17T14:24:05;3.50;;;2.00;;
9106;SDS011;4589;48.690;8.952;2024-03-17T14:26:33;4.00;;;1.90;;
9106;SDS011;4589;48.690;8.952;2024-03-17T14:29:00;2.53;;;1.70;;
9106;SDS011;4589;48.690;8.952;2024-03-17T14:31:29;3.70;;;1.80;;
9106;SDS011;4589;48.690;8.952;2024-03-17T14:34:01;2.80;;;2.10;;
9106;SDS011;4589;48.690;8.952;2024-03-17T14:36:33;2.37;;;2.00;;
9106;SDS011;4589;48.690;8.952;2024-03-17T14:38:59;2.20;;;1.93;;
9106;SDS011;4589;48.690;8.952;2024-03-17T14:41:27;2.10;;;1.80;;
9106;SDS011;4589;48.690;8.952;2024-03-17T14:43:54;9.53;;;1.90;;
9106;SDS011;4589;48.690;8.952;2024-03-17T14:46:19;1.70;;;1.60;;
9106;SDS011;4589;48.690;8.952;2024-03-17T14:48:45;4.17;;;1.50;;
9106;SDS011;4589;48.690;8.952;2024-03-17T14:51:10;2.03;;;1.47;;
9106;SDS011;4589;48.690;8.952;2024-03-17T14:53:36;7.03;;;3.03;;
9106;SDS011;4589;48.690;8.952;2024-03-17T14:56:07;2.33;;;1.50;;
9106;SDS011;4589;48.690;8.952;2024-03-17T14:58:34;2.70;;;1.87;;
9106;SDS011;4589;48.690;8.952;2024-03-17T15:01:00;7.33;;;1.50;;
9106;SDS011;4589;48.690;8.952;2024-03-17T15:03:25;1.80;;;1.50;;
9106;SDS011;4589;48.690;8.952;2024-03-17T15:05:51;3.93;;;1.53;;
9106;SDS011;4589;48.690;8.952;2024-03-17T15:08:17;2.37;;;1.60;;
9106;SDS011;4589;48.690;8.952;2024-03-17T15:10:42;2.20;;;1.30;;
9106;SDS011;4589;48.690;8.952;2024-03-17T15:13:08;2.50;;;1.30;;
9106;SDS011;4589;48.690;8.952;2024-03-17T15:15:35;3.00;;;1.57;;
9106;SDS011;4589;48.690;8.952;2024-03-17T15:18:02;1.87;;;1.30;;
9106;SDS011;4589;48.690;8.952;2024-03-17T15:20:28;2.90;;;1.87;;
9106;SDS011;4589;48.690;8.952;2024-03-17T15:22:54;2.10;;;1.90;;
9106;SDS011;4589;48.690;8.952;2024-03-17T15:25:20;2.03;;;1.80;;
9106;SDS011;4589;48.690;8.952;2024-03-17T15:27:45;4.50;;;2.17;;